sensor_id;sensor_type;location;lat;lon;timestamp;pressure;altitude;pressure_sealevel;temperature;humidity
12471;BME280;36499;46.484;13.832;2024-03-23T00:54:02;92802.31;;;5.86;100.00
12471;BME280;36499;46.484;13.832;2024-03-23T00:56:28;92795.09;;;5.81;100.00
12471;BME280;36499;46.484;13.832;2024-03-23T00:58:54;92801.03;;;5.74;100.00
12471;BME280;36499;46.484;13.832;2024-03-23T01:01:20;92793.91;;;5.51;100.00
12471;BME280;36499;46.484;13.832;2024-03-23T01:03:46;92789.56;;;5.52;100.00
12471;BME280;36499;46.484;13.832;2024-03-23T01:06:13;92778.97;;;5.79;100.00
12471;BME280;36499;46.484;13.832;2024-03-23T01:08:38;92781.84;;;5.60;100.00
12471;BME280;36499;46.484;13.832;2024-03-23T01:11:05;92781.34;;;5.48;100.00
12471;BME280;36499;46.484;13.832;2024-03-23T01:13:31;92772.97;;;5.54;100.00
12471;BME280;36499;46.484;13.832;2024-03-23T01:15:57;92770.09;;;5.57;100.00
12471;BME280;36499;46.484;13.832;2024-03-23T01:18:23;92773.78;;;5.55;100.00
12471;BME280;36499;46.484;13.832;2024-03-23T01:20:51;92765.91;;;5.65;100.00
12471;BME280;36499;46.484;13.832;2024-03-23T01:23:17;92765.09;;;5.56;100.00
12471;BME280;36499;46.484;13.832;2024-03-23T01:25:51;92761.06;;;5.53;100.00
12471;BME280;36499;46.484;13.832;2024-03-23T01:28:17;92753.97;;;5.55;100.00
12471;BME280;36499;46.484;13.832;2024-03-23T01:30:44;92751.41;;;5.55;100.00
12471;BME280;36499;46.484;13.832;2024-03-23T01:33:09;92743.69;;;5.47;100.00
12471;BME280;36499;46.484;13.832;2024-03-23T01:35:36;92739.78;;;5.51;100.00
12471;BME280;36499;46.484;13.832;2024-03-23T01:38:02;92743.34;;;5.50;100.00
12471;BME280;36499;46.484;13.832;2024-03-23T01:40:28;92741.25;;;5.38;100.00
12471;BME280;36499;46.484;13.832;2024-03-23T01:42:58;92752.03;;;5.25;100.00
12471;BME280;36499;46.484;13.832;2024-03-23T01:45:25;92746.97;;;4.91;100.00
12471;BME280;36499;46.484;13.832;2024-03-23T01:47:51;92747.69;;;4.67;100.00
12471;BME280;36499;46.484;13.832;2024-03-23T01:50:21;92757.97;;;4.59;100.00
12471;BME280;36499;46.484;13.832;2024-03-23T01:52:48;92757.81;;;4.27;100.00
12471;BME280;36499;46.484;13.832;2024-03-23T01:55:14;92765.06;;;4.05;100.00
12471;BME280;36499;46.484;13.832;2024-03-23T01:57:40;92758.97;;;4.06;100.00
12471;BME280;36499;46.484;13.832;2024-03-23T02:00:08;92755.84;;;4.20;100.00
12471;BME280;36499;46.484;13.832;2024-03-23T02:02:34;92759.81;;;4.41;100.00
12471;BME280;36499;46.484;13.832;2024-03-23T02:05:01;92755.38;;;4.59;100.00
12471;BME280;36499;46.484;13.832;2024-03-23T02:07:26;92748.31;;;4.61;100.00
12471;BME280;36499;46.484;13.832;2024-03-23T02:09:53;92741.94;;;4.81;100.00
12471;BME280;36499;46.484;13.832;2024-03-23T02:12:20;92738.13;;;4.93;100.00
12471;BME280;36499;46.484;13.832;2024-03-23T02:14:47;92737.31;;;4.93;100.00
12471;BME280;36499;46.484;13.832;2024-03-23T02:17:13;92726.03;;;4.86;100.00
12471;BME280;36499;46.484;13.832;2024-03-23T02:19:39;92725.88;;;4.87;100.00
12471;BME280;36499;46.484;13.832;2024-03-23T02:22:05;92711.59;;;5.01;100.00
12471;BME280;36499;46.484;13.832;2024-03-23T02:24:31;92709.34;;;5.14;100.00
12471;BME280;36499;46.484;13.832;2024-03-23T02:26:57;92703.06;;;5.17;100.00
12471;BME280;36499;46.484;13.832;2024-03-23T02:29:23;92704.03;;;5.08;100.00
12471;BME280;36499;46.484;13.832;2024-03-23T02:31:50;92696.91;;;4.85;100.00
12471;BME280;36499;46.484;13.832;2024-03-23T02:34:16;92691.78;;;4.93;100.00
12471;BME280;36499;46.484;13.832;2024-03-23T02:36:42;92692.25;;;4.97;100.00
12471;BME280;36499;46.484;13.832;2024-03-23T02:39:08;92700.75;;;4.73;100.00
12471;BME280;36499;46.484;13.832;2024-03-23T02:41:34;92687.56;;;4.76;100.00
12471;BME280;36499;46.484;13.832;2024-03-23T02:44:00;92683.38;;;4.83;100.00
12471;BME280;36499;46.484;13.832;2024-03-23T02:46:26;92679.84;;;4.84;100.00
12471;BME280;36499;46.484;13.832;2024-03-23T02:48:52;92678.69;;;4.79;100.00
12471;BME280;36499;46.484;13.832;2024-03-23T02:51:19;92674.38;;;4.71;100.00
12471;BME280;36499;46.484;13.832;2024-03-23T02:53:44;92673.91;;;4.76;100.00
12471;BME280;36499;46.484;13.832;2024-03-23T02:56:11;92673.91;;;4.76;100.00
12471;BME280;36499;46.484;13.832;2024-03-23T02:58:41;92677.28;;;4.84;100.00
12471;BME280;36499;46.484;13.832;2024-03-23T03:01:07;92676.31;;;4.77;100.00
12471;BME280;36499;46.484;13.832;2024-03-23T03:03:33;92680.81;;;4.91;100.00
12471;BME280;36499;46.484;13.832;2024-03-23T03:05:58;92673.44;;;5.05;100.00
12471;BME280;36499;46.484;13.832;2024-03-23T03:08:25;92677.63;;;5.14;100.00
12471;BME280;36499;46.484;13.832;2024-03-23T03:10:51;92671.03;;;5.03;100.00
12471;BME280;36499;46.484;13.832;2024-03-23T03:13:17;92669.41;;;5.18;100.00
12471;BME280;36499;46.484;13.832;2024-03-23T03:15:43;92674.09;;;5.15;100.00
12471;BME280;36499;46.484;13.832;2024-03-23T03:18:10;92668.78;;;5.16;100.00
12471;BME280;36499;46.484;13.832;2024-03-23T03:20:42;92662.03;;;5.23;100.00
12471;BME280;36499;46.484;13.832;2024-03-23T03:23:09;92658.81;;;5.30;100.00
12471;BME280;36499;46.484;13.832;2024-03-23T03:25:35;92653.47;;;5.23;100.00
12471;BME280;36499;46.484;13.832;2024-03-23T03:28:01;92656.72;;;5.01;100.00
12471;BME280;36499;46.484;13.832;2024-03-23T03:30:28;92651.69;;;4.91;100.00
12471;BME280;36499;46.484;13.832;2024-03-23T03:32:54;92652.50;;;5.16;100.00
12471;BME280;36499;46.484;13.832;2024-03-23T03:35:20;92644.13;;;5.14;100.00
12471;BME280;36499;46.484;13.832;2024-03-23T03:37:46;92648.66;;;5.04;100.00
12471;BME280;36499;46.484;13.832;2024-03-23T03:40:13;92640.31;;;5.10;100.00
12471;BME280;36499;46.484;13.832;2024-03-23T03:42:40;92643.69;;;5.10;100.00
12471;BME280;36499;46.484;13.832;2024-03-23T03:45:07;92640.94;;;5.04;100.00
12471;BME280;36499;46.484;13.832;2024-03-23T03:47:33;92640.78;;;4.97;100.00
12471;BME280;36499;46.484;13.832;2024-03-23T03:49:59;92637.84;;;4.84;100.00
12471;BME280;36499;46.484;13.832;2024-03-23T03:52:25;92638.97;;;4.65;100.00
12471;BME280;36499;46.484;13.832;2024-03-23T03:55:00;92637.31;;;4.48;100.00
12471;BME280;36499;46.484;13.832;2024-03-23T03:57:27;92642.41;;;4.32;100.00
12471;BME280;36499;46.484;13.832;2024-03-23T03:59:54;92641.28;;;4.26;100.00
12471;BME280;36499;46.484;13.832;2024-03-23T04:02:19;92635.69;;;4.47;100.00
12471;BME280;36499;46.484;13.832;2024-03-23T04:04:46;92646.09;;;4.29;100.00
12471;BME280;36499;46.484;13.832;2024-03-23T04:07:12;92648.56;;;4.47;100.00
12471;BME280;36499;46.484;13.832;2024-03-23T04:09:39;92642.78;;;4.53;100.00
12471;BME280;36499;46.484;13.832;2024-03-23T04:12:04;92656.13;;;4.48;100.00
12471;BME280;36499;46.484;13.832;2024-03-23T04:14:31;92654.81;;;4.44;100.00
12471;BME280;36499;46.484;13.832;2024-03-23T04:16:57;92655.31;;;4.48;100.00
12471;BME280;36499;46.484;13.832;2024-03-23T04:19:23;92650.97;;;4.40;100.00
12471;BME280;36499;46.484;13.832;2024-03-23T04:21:49;92646.63;;;4.49;100.00
12471;BME280;36499;46.484;13.832;2024-03-23T04:24:15;92634.97;;;4.20;100.00
12471;BME280;36499;46.484;13.832;2024-03-23T04:26:42;92630.94;;;4.18;100.00
12471;BME280;36499;46.484;13.832;2024-03-23T04:29:08;92626.97;;;4.32;100.00
12471;BME280;36499;46.484;13.832;2024-03-23T04:31:34;92626.16;;;4.23;100.00
12471;BME280;36499;46.484;13.832;2024-03-23T04:34:01;92617.19;;;4.35;100.00
12471;BME280;36499;46.484;13.832;2024-03-23T04:36:27;92611.75;;;4.38;100.00
12471;BME280;36499;46.484;13.832;2024-03-23T04:38:53;92607.88;;;4.34;100.00
12471;BME280;36499;46.484;13.832;2024-03-23T04:41:20;92615.22;;;4.21;100.00
12471;BME280;36499;46.484;13.832;2024-03-23T04:43:47;92613.47;;;4.30;100.00
12471;BME280;36499;46.484;13.832;2024-03-23T04:46:13;92615.69;;;4.16;100.00
12471;BME280;36499;46.484;13.832;2024-03-23T04:48:40;92608.00;;;3.90;100.00
12471;BME280;36499;46.484;13.832;2024-03-23T04:51:09;92602.59;;;4.02;100.00
12471;BME280;36499;46.484;13.832;2024-03-23T04:53:37;92605.16;;;4.02;100.00
12471;BME280;36499;46.484;13.832;2024-03-23T04:56:04;92591.97;;;3.97;100.00
12471;BME280;36499;46.484;13.832;2024-03-23T04:58:30;92597.75;;;3.99;100.00
12471;BME280;36499;46.484;13.832;2024-03-23T05:00:57;92591.28;;;4.29;100.00
12471;BME280;36499;46.484;13.832;2024-03-23T05:03:23;92589.53;;;4.29;100.00
12471;BME280;36499;46.484;13.832;2024-03-23T05:05:50;92597.34;;;4.11;100.00
12471;BME280;36499;46.484;13.832;2024-03-23T05:08:16;92595.41;;;4.13;100.00
12471;BME280;36499;46.484;13.832;2024-03-23T05:10:43;92583.81;;;4.09;100.00
12471;BME280;36499;46.484;13.832;2024-03-23T05:13:09;92577.75;;;4.18;100.00
12471;BME280;36499;46.484;13.832;2024-03-23T05:15:36;92586.66;;;3.98;100.00
12471;BME280;36499;46.484;13.832;2024-03-23T05:18:01;92566.47;;;4.11;100.00
12471;BME280;36499;46.484;13.832;2024-03-23T05:20:28;92566.47;;;4.11;100.00
12471;BME280;36499;46.484;13.832;2024-03-23T05:22:55;92578.13;;;3.89;100.00
12471;BME280;36499;46.484;13.832;2024-03-23T05:25:21;92573.41;;;4.19;100.00
12471;BME280;36499;46.484;13.832;2024-03-23T05:27:48;92561.03;;;4.14;100.00
12471;BME280;36499;46.484;13.832;2024-03-23T05:30:15;92579.41;;;3.93;100.00
12471;BME280;36499;46.484;13.832;2024-03-23T05:32:40;92566.47;;;4.11;100.00
12471;BME280;36499;46.484;13.832;2024-03-23T05:35:08;92570.41;;;4.32;100.00
12471;BME280;36499;46.484;13.832;2024-03-23T05:37:34;92564.47;;;4.47;100.00
12471;BME280;36499;46.484;13.832;2024-03-23T05:40:01;92558.34;;;4.48;100.00
12471;BME280;36499;46.484;13.832;2024-03-23T05:42:29;92558.53;;;4.63;100.00
12471;BME280;36499;46.484;13.832;2024-03-23T05:44:55;92558.38;;;4.65;100.00
12471;BME280;36499;46.484;13.832;2024-03-23T05:47:21;92555.78;;;4.56;100.00
12471;BME280;36499;46.484;13.832;2024-03-23T05:49:48;92547.41;;;4.46;100.00
12471;BME280;36499;46.484;13.832;2024-03-23T05:52:13;92552.13;;;4.67;100.00
12471;BME280;36499;46.484;13.832;2024-03-23T05:54:40;92558.22;;;4.66;100.00
12471;BME280;36499;46.484;13.832;2024-03-23T05:57:08;92564.34;;;4.65;100.00
12471;BME280;36499;46.484;13.832;2024-03-23T05:59:35;92562.06;;;4.62;100.00
12471;BME280;36499;46.484;13.832;2024-03-23T06:02:00;92554.66;;;4.83;100.00
12471;BME280;36499;46.484;13.832;2024-03-23T06:04:29;92559.19;;;4.98;100.00
12471;BME280;36499;46.484;13.832;2024-03-23T06:06:54;92557.72;;;4.95;100.00
12471;BME280;36499;46.484;13.832;2024-03-23T06:09:23;92549.47;;;5.32;100.00
12471;BME280;36499;46.484;13.832;2024-03-23T06:11:48;92553.59;;;5.49;100.00
12471;BME280;36499;46.484;13.832;2024-03-23T06:14:15;92552.81;;;5.49;100.00
12471;BME280;36499;46.484;13.832;2024-03-23T06:16:40;92547.47;;;5.58;100.00
12471;BME280;36499;46.484;13.832;2024-03-23T06:19:07;92545.03;;;5.65;100.00
12471;BME280;36499;46.484;13.832;2024-03-23T06:21:33;92539.56;;;5.60;100.00
12471;BME280;36499;46.484;13.832;2024-03-23T06:23:59;92540.69;;;5.57;100.00
12471;BME280;36499;46.484;13.832;2024-03-23T06:26:25;92542.22;;;5.44;100.00
12471;BME280;36499;46.484;13.832;2024-03-23T06:28:52;92540.69;;;5.57;100.00
12471;BME280;36499;46.484;13.832;2024-03-23T06:31:17;92533.63;;;5.51;100.00
12471;BME280;36499;46.484;13.832;2024-03-23T06:33:45;92540.88;;;5.48;100.00
12471;BME280;36499;46.484;13.832;2024-03-23T06:36:11;92542.69;;;5.47;100.00
12471;BME280;36499;46.484;13.832;2024-03-23T06:38:38;92537.66;;;5.54;100.00
12471;BME280;36499;46.484;13.832;2024-03-23T06:41:06;92539.88;;;5.65;100.00
12471;BME280;36499;46.484;13.832;2024-03-23T06:43:33;92539.09;;;5.56;100.00
12471;BME280;36499;46.484;13.832;2024-03-23T06:45:59;92529.16;;;5.45;100.00
12471;BME280;36499;46.484;13.832;2024-03-23T06:48:25;92529.97;;;5.46;100.00
12471;BME280;36499;46.484;13.832;2024-03-23T06:50:55;92523.31;;;5.51;100.00
12471;BME280;36499;46.484;13.832;2024-03-23T06:53:22;92524.75;;;5.62;100.00
12471;BME280;36499;46.484;13.832;2024-03-23T06:55:54;92521.91;;;5.88;100.00
12471;BME280;36499;46.484;13.832;2024-03-23T06:58:24;92527.63;;;6.06;100.00
12471;BME280;36499;46.484;13.832;2024-03-23T07:00:50;92522.94;;;6.10;100.00
12471;BME280;36499;46.484;13.832;2024-03-23T07:03:17;92523.50;;;6.20;100.00
12471;BME280;36499;46.484;13.832;2024-03-23T07:05:42;92528.69;;;6.43;100.00
12471;BME280;36499;46.484;13.832;2024-03-23T07:08:11;92527.13;;;7.02;100.00
12471;BME280;36499;46.484;13.832;2024-03-23T07:10:39;92520.78;;;7.57;100.00
12471;BME280;36499;46.484;13.832;2024-03-23T07:13:06;92518.44;;;8.27;100.00
12471;BME280;36499;46.484;13.832;2024-03-23T07:15:32;92520.81;;;8.80;100.00
12471;BME280;36499;46.484;13.832;2024-03-23T07:17:58;92516.13;;;9.46;100.00
12471;BME280;36499;46.484;13.832;2024-03-23T07:20:24;92513.91;;;9.43;100.00
12471;BME280;36499;46.484;13.832;2024-03-23T07:22:51;92506.47;;;9.68;100.00
12471;BME280;36499;46.484;13.832;2024-03-23T07:25:17;92494.84;;;9.91;100.00
12471;BME280;36499;46.484;13.832;2024-03-23T07:27:43;92497.06;;;9.94;100.00
12471;BME280;36499;46.484;13.832;2024-03-23T07:30:09;92487.44;;;9.88;100.00
12471;BME280;36499;46.484;13.832;2024-03-23T07:32:36;92480.84;;;9.86;100.00
12471;BME280;36499;46.484;13.832;2024-03-23T07:35:01;92478.28;;;9.92;100.00
12471;BME280;36499;46.484;13.832;2024-03-23T07:37:29;92474.75;;;10.07;100.00
12471;BME280;36499;46.484;13.832;2024-03-23T07:39:55;92473.56;;;10.09;100.00
12471;BME280;36499;46.484;13.832;2024-03-23T07:42:22;92472.84;;;10.28;100.00
12471;BME280;36499;46.484;13.832;2024-03-23T07:44:48;92466.47;;;10.44;100.00
12471;BME280;36499;46.484;13.832;2024-03-23T07:47:15;92464.50;;;10.53;100.00
12471;BME280;36499;46.484;13.832;2024-03-23T07:49:41;92467.91;;;10.73;100.00
12471;BME280;36499;46.484;13.832;2024-03-23T07:52:07;92470.09;;;10.70;100.00
12471;BME280;36499;46.484;13.832;2024-03-23T07:54:33;92466.72;;;10.82;100.00
12471;BME280;36499;46.484;13.832;2024-03-23T07:57:00;92465.75;;;10.97;100.00
12471;BME280;36499;46.484;13.832;2024-03-23T07:59:25;92466.31;;;11.12;100.00
12471;BME280;36499;46.484;13.832;2024-03-23T08:01:52;92467.13;;;11.19;99.27
12471;BME280;36499;46.484;13.832;2024-03-23T08:04:18;92462.13;;;11.37;99.52
12471;BME280;36499;46.484;13.832;2024-03-23T08:06:45;92451.91;;;11.55;97.90
12471;BME280;36499;46.484;13.832;2024-03-23T08:09:11;92458.50;;;11.58;97.50
12471;BME280;36499;46.484;13.832;2024-03-23T08:11:37;92448.59;;;11.86;96.32
12471;BME280;36499;46.484;13.832;2024-03-23T08:14:04;92442.94;;;12.03;95.79
12471;BME280;36499;46.484;13.832;2024-03-23T08:19:52;92435.63;;;12.24;92.36
12471;BME280;36499;46.484;13.832;2024-03-23T08:22:19;92431.13;;;12.38;94.31
12471;BME280;36499;46.484;13.832;2024-03-23T08:24:45;92436.63;;;12.23;90.35
12471;BME280;36499;46.484;13.832;2024-03-23T08:27:11;92437.25;;;12.12;89.93
12471;BME280;36499;46.484;13.832;2024-03-23T08:29:37;92440.47;;;12.08;90.42
12471;BME280;36499;46.484;13.832;2024-03-23T08:32:04;92436.72;;;12.04;89.38
12471;BME280;36499;46.484;13.832;2024-03-23T08:34:29;92433.72;;;12.00;91.11
12471;BME280;36499;46.484;13.832;2024-03-23T08:36:56;92421.75;;;11.92;90.71
12471;BME280;36499;46.484;13.832;2024-03-23T08:39:21;92423.56;;;11.85;90.66
12471;BME280;36499;46.484;13.832;2024-03-23T08:41:48;92415.16;;;11.83;91.56
12471;BME280;36499;46.484;13.832;2024-03-23T08:44:13;92406.31;;;11.91;89.57
12471;BME280;36499;46.484;13.832;2024-03-23T08:46:40;92403.50;;;11.92;90.75
12471;BME280;36499;46.484;13.832;2024-03-23T08:49:06;92402.53;;;11.87;87.49
12471;BME280;36499;46.484;13.832;2024-03-23T08:51:32;92400.50;;;11.95;89.11
12471;BME280;36499;46.484;13.832;2024-03-23T08:53:58;92391.88;;;12.02;89.25
12471;BME280;36499;46.484;13.832;2024-03-23T08:56:24;92387.28;;;11.97;89.57
12471;BME280;36499;46.484;13.832;2024-03-23T08:58:50;92393.47;;;12.03;89.04
12471;BME280;36499;46.484;13.832;2024-03-23T09:01:17;92389.66;;;12.05;85.16
12471;BME280;36499;46.484;13.832;2024-03-23T09:03:42;92392.91;;;11.87;86.31
12471;BME280;36499;46.484;13.832;2024-03-23T09:06:10;92390.09;;;11.89;87.23
12471;BME280;36499;46.484;13.832;2024-03-23T09:08:36;92396.34;;;11.81;85.07
12471;BME280;36499;46.484;13.832;2024-03-23T09:11:05;92398.16;;;11.74;86.24
12471;BME280;36499;46.484;13.832;2024-03-23T09:13:35;92393.59;;;11.70;88.20
12471;BME280;36499;46.484;13.832;2024-03-23T09:16:02;92384.41;;;11.67;87.58
12471;BME280;36499;46.484;13.832;2024-03-23T09:18:32;92373.81;;;11.62;86.68
12471;BME280;36499;46.484;13.832;2024-03-23T09:21:00;92381.63;;;11.55;86.92
12471;BME280;36499;46.484;13.832;2024-03-23T09:23:26;92370.25;;;11.43;88.48
12471;BME280;36499;46.484;13.832;2024-03-23T09:25:52;92379.66;;;11.44;88.52
12471;BME280;36499;46.484;13.832;2024-03-23T09:28:18;92368.66;;;11.49;91.52
12471;BME280;36499;46.484;13.832;2024-03-23T09:30:54;92358.44;;;11.92;90.56
12471;BME280;36499;46.484;13.832;2024-03-23T09:33:20;92364.50;;;12.17;93.49
12471;BME280;36499;46.484;13.832;2024-03-23T09:35:46;92352.00;;;12.57;87.48
12471;BME280;36499;46.484;13.832;2024-03-23T09:38:12;92347.78;;;12.88;88.75
12471;BME280;36499;46.484;13.832;2024-03-23T09:40:42;92355.16;;;13.34;82.84
12471;BME280;36499;46.484;13.832;2024-03-23T09:43:08;92349.84;;;13.59;81.67
12471;BME280;36499;46.484;13.832;2024-03-23T09:45:39;92349.47;;;13.92;81.23
12471;BME280;36499;46.484;13.832;2024-03-23T09:48:06;92346.72;;;14.17;75.21
12471;BME280;36499;46.484;13.832;2024-03-23T09:50:38;92335.06;;;14.31;73.11
12471;BME280;36499;46.484;13.832;2024-03-23T09:53:06;92331.50;;;14.55;75.51
12471;BME280;36499;46.484;13.832;2024-03-23T09:55:34;92316.03;;;14.54;68.31
12471;BME280;36499;46.484;13.832;2024-03-23T09:58:01;92314.06;;;14.49;69.41
12471;BME280;36499;46.484;13.832;2024-03-23T10:00:27;92310.00;;;14.42;71.05
12471;BME280;36499;46.484;13.832;2024-03-23T10:02:56;92306.81;;;14.51;73.19
12471;BME280;36499;46.484;13.832;2024-03-23T10:05:23;92308.97;;;14.43;68.22
12471;BME280;36499;46.484;13.832;2024-03-23T10:07:52;92302.38;;;14.52;68.57
12471;BME280;36499;46.484;13.832;2024-03-23T10:10:19;92303.06;;;14.59;70.38
12471;BME280;36499;46.484;13.832;2024-03-23T10:12:49;92285.13;;;14.74;67.78
12471;BME280;36499;46.484;13.832;2024-03-23T10:15:24;92278.31;;;14.85;69.10
12471;BME280;36499;46.484;13.832;2024-03-23T10:17:50;92278.44;;;15.02;70.27
12471;BME280;36499;46.484;13.832;2024-03-23T10:20:21;92270.34;;;15.15;69.37
12471;BME280;36499;46.484;13.832;2024-03-23T10:22:48;92269.41;;;15.21;70.69
12471;BME280;36499;46.484;13.832;2024-03-23T10:25:15;92266.53;;;15.34;67.40
12471;BME280;36499;46.484;13.832;2024-03-23T10:27:40;92255.25;;;15.45;68.63
12471;BME280;36499;46.484;13.832;2024-03-23T10:30:13;92251.09;;;15.61;64.76
12471;BME280;36499;46.484;13.832;2024-03-23T10:32:40;92248.44;;;15.33;60.62
12471;BME280;36499;46.484;13.832;2024-03-23T10:35:17;92248.97;;;14.94;58.68
12471;BME280;36499;46.484;13.832;2024-03-23T10:37:44;92261.44;;;14.34;56.46
12471;BME280;36499;46.484;13.832;2024-03-23T10:40:12;92241.53;;;14.10;61.02
12471;BME280;36499;46.484;13.832;2024-03-23T10:42:39;92225.06;;;14.56;56.07
12471;BME280;36499;46.484;13.832;2024-03-23T10:45:07;92231.53;;;14.18;50.59
12471;BME280;36499;46.484;13.832;2024-03-23T10:47:35;92223.00;;;13.70;52.00
12471;BME280;36499;46.484;13.832;2024-03-23T10:50:03;92214.97;;;13.41;54.10
12471;BME280;36499;46.484;13.832;2024-03-23T10:52:29;92210.78;;;13.52;55.83
12471;BME280;36499;46.484;13.832;2024-03-23T10:54:56;92197.19;;;13.61;53.70
12471;BME280;36499;46.484;13.832;2024-03-23T10:57:29;92213.00;;;13.67;54.40
12471;BME280;36499;46.484;13.832;2024-03-23T10:59:58;92195.47;;;13.85;54.39
12471;BME280;36499;46.484;13.832;2024-03-23T11:02:25;92205.59;;;13.93;53.58
12471;BME280;36499;46.484;13.832;2024-03-23T11:04:53;92198.13;;;14.09;53.47
12471;BME280;36499;46.484;13.832;2024-03-23T11:07:31;92176.66;;;14.18;51.54
12471;BME280;36499;46.484;13.832;2024-03-23T11:09:59;92189.56;;;13.90;50.15
12471;BME280;36499;46.484;13.832;2024-03-23T11:12:26;92191.31;;;14.08;51.51
12471;BME280;36499;46.484;13.832;2024-03-23T11:15:04;92168.56;;;13.85;52.82
12471;BME280;36499;46.484;13.832;2024-03-23T11:17:30;92163.56;;;13.95;52.83
12471;BME280;36499;46.484;13.832;2024-03-23T11:20:02;92170.97;;;13.98;54.11
12471;BME280;36499;46.484;13.832;2024-03-23T11:27:37;92151.44;;;13.59;54.87
12471;BME280;36499;46.484;13.832;2024-03-23T11:30:17;92125.88;;;13.79;54.46
12471;BME280;36499;46.484;13.832;2024-03-23T11:32:47;92159.63;;;13.62;52.47
12471;BME280;36499;46.484;13.832;2024-03-23T11:40:30;92150.56;;;13.65;55.99
12471;BME280;36499;46.484;13.832;2024-03-23T11:43:04;92156.84;;;13.76;55.30
12471;BME280;36499;46.484;13.832;2024-03-23T11:45:41;92148.75;;;13.66;54.69
12471;BME280;36499;46.484;13.832;2024-03-23T11:50:36;92163.59;;;13.65;53.78
12471;BME280;36499;46.484;13.832;2024-03-23T11:53:24;92176.94;;;13.15;56.00
12471;BME280;36499;46.484;13.832;2024-03-23T11:55:57;92169.38;;;12.95;58.62
12471;BME280;36499;46.484;13.832;2024-03-23T11:58:25;92178.50;;;13.05;58.01
12471;BME280;36499;46.484;13.832;2024-03-23T12:01:04;92174.16;;;12.99;58.95
12471;BME280;36499;46.484;13.832;2024-03-23T12:03:31;92155.97;;;12.92;59.63
12471;BME280;36499;46.484;13.832;2024-03-23T12:06:00;92161.50;;;12.66;61.44
12471;BME280;36499;46.484;13.832;2024-03-23T12:08:32;92154.22;;;12.86;60.96
12471;BME280;36499;46.484;13.832;2024-03-23T12:11:17;92155.91;;;12.62;60.84
12471;BME280;36499;46.484;13.832;2024-03-23T12:13:45;92152.50;;;12.61;62.71
12471;BME280;36499;46.484;13.832;2024-03-23T12:16:19;92157.97;;;12.35;63.03
12471;BME280;36499;46.484;13.832;2024-03-23T12:18:49;92145.66;;;12.42;64.20
12471;BME280;36499;46.484;13.832;2024-03-23T12:21:16;92152.78;;;12.10;65.91
12471;BME280;36499;46.484;13.832;2024-03-23T12:23:43;92138.53;;;12.13;67.97
12471;BME280;36499;46.484;13.832;2024-03-23T12:26:10;92137.75;;;12.12;69.42
12471;BME280;36499;46.484;13.832;2024-03-23T12:28:37;92147.34;;;11.93;67.88
12471;BME280;36499;46.484;13.832;2024-03-23T12:31:04;92141.50;;;11.98;69.19
12471;BME280;36499;46.484;13.832;2024-03-23T12:33:31;92141.94;;;11.95;69.12
12471;BME280;36499;46.484;13.832;2024-03-23T12:35:56;92141.66;;;12.03;69.07
12471;BME280;36499;46.484;13.832;2024-03-23T12:38:23;92131.41;;;12.26;69.07
12471;BME280;36499;46.484;13.832;2024-03-23T12:40:49;92133.97;;;12.08;68.12
12471;BME280;36499;46.484;13.832;2024-03-23T12:43:17;92129.34;;;11.92;69.96
12471;BME280;36499;46.484;13.832;2024-03-23T12:45:49;92126.97;;;12.09;70.52
12471;BME280;36499;46.484;13.832;2024-03-23T12:48:16;92113.28;;;11.95;72.76
12471;BME280;36499;46.484;13.832;2024-03-23T12:50:42;92116.25;;;11.74;73.22
12471;BME280;36499;46.484;13.832;2024-03-23T12:53:09;92116.34;;;11.67;73.67
12471;BME280;36499;46.484;13.832;2024-03-23T12:55:35;92127.88;;;11.46;75.42
12471;BME280;36499;46.484;13.832;2024-03-23T12:58:01;92114.28;;;11.44;76.75
12471;BME280;36499;46.484;13.832;2024-03-23T13:00:27;92125.56;;;11.32;78.55
12471;BME280;36499;46.484;13.832;2024-03-23T13:02:54;92109.59;;;11.28;77.61
12471;BME280;36499;46.484;13.832;2024-03-23T13:05:19;92106.22;;;11.21;78.53
12471;BME280;36499;46.484;13.832;2024-03-23T13:07:46;92102.41;;;11.23;78.94
12471;BME280;36499;46.484;13.832;2024-03-23T13:10:11;92110.00;;;11.25;80.42
12471;BME280;36499;46.484;13.832;2024-03-23T13:12:39;92110.81;;;11.25;81.11
12471;BME280;36499;46.484;13.832;2024-03-23T13:15:05;92104.97;;;11.30;80.08
12471;BME280;36499;46.484;13.832;2024-03-23T13:17:32;92103.03;;;11.19;82.50
12471;BME280;36499;46.484;13.832;2024-03-23T13:19:57;92099.16;;;11.35;81.10
12471;BME280;36499;46.484;13.832;2024-03-23T13:22:24;92098.97;;;11.29;82.08
12471;BME280;36499;46.484;13.832;2024-03-23T13:24:49;92095.78;;;11.27;81.39
12471;BME280;36499;46.484;13.832;2024-03-23T13:27:16;92086.09;;;11.10;83.17
12471;BME280;36499;46.484;13.832;2024-03-23T13:29:42;92070.31;;;11.05;82.83
12471;BME280;36499;46.484;13.832;2024-03-23T13:32:11;92073.41;;;10.95;85.21
12471;BME280;36499;46.484;13.832;2024-03-23T13:34:36;92062.97;;;11.02;84.95
12471;BME280;36499;46.484;13.832;2024-03-23T13:37:03;92058.13;;;11.05;85.68
12471;BME280;36499;46.484;13.832;2024-03-23T13:39:29;92048.22;;;10.95;84.11
12471;BME280;36499;46.484;13.832;2024-03-23T13:41:56;92054.94;;;11.03;85.58
12471;BME280;36499;46.484;13.832;2024-03-23T13:44:22;92061.53;;;11.06;84.29
12471;BME280;36499;46.484;13.832;2024-03-23T13:46:49;92055.38;;;11.00;83.38
12471;BME280;36499;46.484;13.832;2024-03-23T13:49:26;92033.25;;;11.16;82.10
12471;BME280;36499;46.484;13.832;2024-03-23T13:51:54;92028.91;;;11.10;79.31
12471;BME280;36499;46.484;13.832;2024-03-23T13:54:20;92027.75;;;11.31;79.38
12471;BME280;36499;46.484;13.832;2024-03-23T13:56:55;92018.56;;;11.28;79.52
12471;BME280;36499;46.484;13.832;2024-03-23T13:59:21;92016.34;;;11.32;78.97